首页
METAR-TAF:

METAR-TAF

机场 :

Jackson Municipal Airport

杰克逊, 明尼蘇達州, 美国

纬度: 43-39N, 经度: 094-59W, 海拔: 441米

当前天气观测

该预报发布于22分钟前的23:55 UTC
风速12节,风向西转西南
温度 24°C
湿度 47%
气压 1005 hPa
能見度: 16.1公里
天空无云

METAR: KMJQ 242355Z AUTO 25012KT 10SM CLR 24/12 A2969 RMK AO2 PWINO

时间: 19:17 (00:17 UTC)


TAF: 丢失

超过4000个机场的气象观测和天气预报(METAR&TAF报告)。

可查询的气象台以黄色和红色小点在地图上表示。

将鼠标移到小点上方,可查看气象台名称。

然后点击查看天气观测和预报。

如需切换地图:点击带黑十字的绿色按钮放大地图;点击带横线的绿色按钮缩小地图;或者点击绿色箭头查看邻近地区的地图。


METAR-TAF: